Time;durP1;ratioP1;P1;durP2;ratioP2;P2;SDS_P1;SDS_P2;PMS_P1;PMS_P2;Temp;Humidity;BMP_temperature;BMP_pressure;BME280_temperature;BME280_humidity;BME280_pressure;Samples;Min_cycle;Max_cycle;Signal;HPM_P1;HPM_P2
2022/11/09 00:02:24;;;;;;;4.60;2.50;;;;;;;13.02;78.54;100458.91;5045962;28;20045;-66
2022/11/09 00:04:51;;;;;;;4.88;2.33;;;;;;;12.89;78.20;100461.53;5046924;28;20509;-66
2022/11/09 00:07:17;;;;;;;4.35;2.58;;;;;;;12.45;80.55;100460.91;5046204;28;20481;-66
2022/11/09 00:09:44;;;;;;;5.20;2.95;;;;;;;13.04;78.59;100459.66;5046222;28;20044;-66
2022/11/09 00:12:10;;;;;;;5.28;2.47;;;;;;;12.98;78.33;100452.16;5046153;28;20094;-66
2022/11/09 00:14:38;;;;;;;4.82;2.33;;;;;;;13.02;77.89;100446.59;5047718;28;20405;-66
2022/11/09 00:17:04;;;;;;;3.65;2.42;;;;;;;12.73;79.34;100444.19;5044711;28;20049;-66
2022/11/09 00:19:31;;;;;;;4.97;2.40;;;;;;;12.83;79.15;100435.59;5046997;28;20060;-66
2022/11/09 00:21:57;;;;;;;7.15;2.28;;;;;;;12.95;78.02;100440.06;5047201;28;20041;-66
2022/11/09 00:24:24;;;;;;;3.78;2.45;;;;;;;12.99;78.28;100444.16;5045428;28;20045;-66
2022/11/09 00:26:50;;;;;;;4.90;2.70;;;;;;;13.23;76.16;100449.59;5047082;28;20056;-66
2022/11/09 00:29:17;;;;;;;4.63;2.40;;;;;;;13.68;74.36;100443.00;5046425;28;20056;-66
2022/11/09 00:31:45;;;;;;;3.25;1.95;;;;;;;14.03;72.92;100440.56;5045516;28;20509;-66
2022/11/09 00:34:11;;;;;;;4.80;2.45;;;;;;;14.05;72.27;100454.47;5047183;28;20417;-66
2022/11/09 00:36:37;;;;;;;4.95;2.03;;;;;;;14.19;71.05;100442.94;5046561;28;20409;-66
2022/11/09 00:39:04;;;;;;;4.72;2.22;;;;;;;13.78;72.76;100436.16;5044411;28;20048;-66
2022/11/09 00:41:30;;;;;;;6.72;2.53;;;;;;;14.00;72.13;100443.41;5045786;28;20492;-66
2022/11/09 00:43:57;;;;;;;3.15;2.00;;;;;;;14.13;71.16;100444.22;5045814;28;20053;-67
2022/11/09 00:46:23;;;;;;;5.75;2.60;;;;;;;14.10;71.61;100447.06;5045761;28;20045;-67
2022/11/09 00:48:51;;;;;;;8.02;2.78;;;;;;;13.63;73.63;100440.69;5046377;28;20049;-66
2022/11/09 00:51:17;;;;;;;5.35;2.00;;;;;;;14.14;71.18;100441.47;5045688;28;20052;-66
2022/11/09 00:53:47;;;;;;;6.35;2.17;;;;;;;13.91;72.33;100442.25;5044960;28;20052;-67
2022/11/09 00:56:13;;;;;;;3.97;2.10;;;;;;;13.55;72.97;100448.28;5047288;28;20516;-67
2022/11/09 00:58:40;;;;;;;3.50;2.05;;;;;;;13.29;74.29;100443.09;5043809;28;20045;-66
2022/11/09 01:01:09;;;;;;;7.03;2.42;;;;;;;13.40;74.82;100445.84;5043524;28;20106;-66
2022/11/09 01:03:36;;;;;;;6.57;2.28;;;;;;;13.23;74.42;100441.69;5047411;28;20459;-66
2022/11/09 01:06:05;;;;;;;3.47;2.17;;;;;;;13.08;75.95;100430.38;5046377;28;20053;-66
2022/11/09 01:08:33;;;;;;;3.00;2.15;;;;;;;13.21;76.70;100422.56;5042837;28;20041;-67
2022/11/09 01:11:04;;;;;;;4.32;2.10;;;;;;;13.15;76.70;100418.53;5044533;28;20413;-67
2022/11/09 01:13:31;;;;;;;4.50;2.13;;;;;;;12.88;75.42;100419.50;5045222;28;20068;-66
2022/11/09 01:15:58;;;;;;;3.70;1.95;;;;;;;13.52;73.40;100423.94;5044834;28;20048;-66
2022/11/09 01:18:24;;;;;;;3.72;2.03;;;;;;;13.35;72.57;100417.19;5044554;28;20048;-67
2022/11/09 01:20:51;;;;;;;4.75;2.20;;;;;;;13.68;72.33;100423.72;5046155;28;20053;-67
2022/11/09 01:23:20;;;;;;;5.05;2.30;;;;;;;13.87;70.00;100426.75;5049416;28;20424;-67
2022/11/09 01:25:46;;;;;;;3.60;2.10;;;;;;;13.53;71.56;100417.72;5044428;28;20107;-67
2022/11/09 01:28:13;;;;;;;3.72;2.15;;;;;;;13.64;72.27;100412.53;5045965;28;20531;-67
2022/11/09 01:30:41;;;;;;;5.68;1.90;;;;;;;13.63;72.21;100400.34;5044610;28;20037;-67
2022/11/09 01:33:10;;;;;;;3.08;1.80;;;;;;;13.18;72.87;100393.81;5044525;28;20059;-68
2022/11/09 01:35:39;;;;;;;4.35;1.90;;;;;;;13.73;71.76;100396.09;5047911;28;20045;-67
2022/11/09 01:38:06;;;;;;;4.28;2.13;;;;;;;13.71;72.38;100398.00;5044860;28;20033;-66
2022/11/09 01:40:36;;;;;;;4.53;2.20;;;;;;;13.43;72.66;100391.19;5044401;28;20044;-67
2022/11/09 01:43:07;;;;;;;5.18;2.30;;;;;;;13.58;72.52;100398.03;5045156;28;20071;-67
2022/11/09 01:45:33;;;;;;;4.25;2.10;;;;;;;13.15;74.18;100380.84;5044886;28;20460;-67
2022/11/09 01:48:04;;;;;;;6.22;2.47;;;;;;;13.47;73.50;100382.13;5044174;28;20071;-68
2022/11/09 01:50:41;;;;;;;3.97;2.03;;;;;;;13.29;73.28;100386.00;5044042;28;20099;-67
2022/11/09 01:53:12;;;;;;;5.28;2.35;;;;;;;13.40;73.35;100382.66;5045029;28;20045;-67
2022/11/09 01:55:41;;;;;;;5.20;2.08;;;;;;;13.52;72.83;100392.34;5043417;28;20045;-67
2022/11/09 01:58:13;;;;;;;3.83;2.10;;;;;;;13.16;73.61;100385.16;5046049;28;20052;-67
2022/11/09 02:00:44;;;;;;;4.72;2.20;;;;;;;13.28;73.41;100391.38;5045107;28;20045;-67
2022/11/09 02:03:15;;;;;;;5.07;1.95;;;;;;;13.58;71.46;100397.16;5043382;28;20675;-68
2022/11/09 02:05:42;;;;;;;3.70;2.05;;;;;;;13.29;72.53;100393.91;5045314;28;20416;-67
2022/11/09 02:08:10;;;;;;;9.50;2.38;;;;;;;13.54;70.98;100386.00;5044722;28;20049;-67
2022/11/09 02:10:42;;;;;;;4.25;2.10;;;;;;;13.52;72.16;100385.28;5044221;28;20045;-67
2022/11/09 02:13:11;;;;;;;5.78;2.17;;;;;;;13.25;71.57;100399.50;5045521;28;20451;-67
2022/11/09 02:15:38;;;;;;;3.17;1.90;;;;;;;13.55;71.19;100400.03;5047889;28;20048;-67
2022/11/09 02:18:06;;;;;;;5.53;1.88;;;;;;;13.23;72.12;100399.56;5049068;28;20041;-67
2022/11/09 02:20:44;;;;;;;4.75;2.22;;;;;;;13.37;71.49;100388.97;5047366;28;20045;-67
2022/11/09 02:23:11;;;;;;;4.88;2.15;;;;;;;13.74;70.14;100389.06;5046680;28;20052;-68
2022/11/09 02:25:37;;;;;;;3.25;1.90;;;;;;;13.82;69.65;100390.16;5047512;28;20047;-67
2022/11/09 02:28:04;;;;;;;3.80;2.00;;;;;;;13.64;70.18;100383.56;5048444;28;20040;-67
2022/11/09 02:30:33;;;;;;;3.45;2.00;;;;;;;13.79;70.07;100386.91;5045626;28;20408;-67
2022/11/09 02:32:59;;;;;;;3.47;1.80;;;;;;;14.45;67.47;100373.34;5047255;28;20507;-67
2022/11/09 02:35:26;;;;;;;3.85;2.05;;;;;;;13.63;69.73;100369.53;5049525;28;20076;-67
2022/11/09 02:37:54;;;;;;;5.97;2.45;;;;;;;13.92;69.60;100369.28;5047469;28;20049;-67
2022/11/09 02:40:26;;;;;;;3.45;1.92;;;;;;;13.68;70.61;100373.66;5047611;28;20074;-67
2022/11/09 02:42:53;;;;;;;6.80;2.60;;;;;;;13.44;71.33;100377.06;5047682;28;20092;-67
2022/11/09 02:45:20;;;;;;;4.15;2.20;;;;;;;13.39;72.26;100380.94;5049506;28;20512;-67
2022/11/09 02:47:46;;;;;;;4.90;2.00;;;;;;;13.71;70.93;100384.81;5047838;28;20045;-67
2022/11/09 02:50:13;;;;;;;5.53;2.25;;;;;;;14.23;68.94;100394.31;5048151;28;20413;-67
2022/11/09 02:52:39;;;;;;;5.65;2.30;;;;;;;13.85;69.90;100397.03;5048336;28;20055;-67
2022/11/09 02:55:08;;;;;;;5.45;2.00;;;;;;;13.86;70.20;100391.66;5047567;28;20481;-67
2022/11/09 02:57:34;;;;;;;7.13;2.30;;;;;;;14.36;68.57;100395.97;5048159;28;20052;-67
2022/11/09 03:00:01;;;;;;;5.95;2.30;;;;;;;14.60;67.59;100388.91;5047693;28;20063;-67
2022/11/09 03:02:28;;;;;;;4.97;2.05;;;;;;;14.49;67.98;100386.19;5046915;28;20044;-67
2022/11/09 03:04:54;;;;;;;4.95;1.88;;;;;;;14.49;67.87;100380.94;5047529;28;20044;-67
2022/11/09 03:07:21;;;;;;;5.53;2.22;;;;;;;14.47;68.64;100382.00;5048232;28;20044;-67
2022/11/09 03:09:47;;;;;;;4.00;2.00;;;;;;;14.37;68.46;100376.56;5047165;28;20048;-67
2022/11/09 03:12:30;;;;;;;3.50;1.90;;;;;;;14.50;68.20;100382.63;5049045;28;20041;-67
2022/11/09 03:14:57;;;;;;;4.82;2.22;;;;;;;14.58;68.01;100385.53;5040297;28;20045;-67
2022/11/09 03:17:24;;;;;;;4.93;2.00;;;;;;;14.18;69.52;100384.09;5048871;28;20052;-67
2022/11/09 03:19:51;;;;;;;4.65;2.15;;;;;;;14.08;70.04;100380.41;5047205;28;20048;-68
2022/11/09 03:22:17;;;;;;;5.43;2.30;;;;;;;13.94;70.83;100391.09;5046516;28;20501;-67
2022/11/09 03:24:44;;;;;;;4.60;1.90;;;;;;;13.48;72.13;100389.06;5046797;28;20412;-67
2022/11/09 03:27:10;;;;;;;4.78;2.10;;;;;;;13.70;71.38;100395.47;5046204;28;20406;-67
2022/11/09 03:29:38;;;;;;;5.25;1.98;;;;;;;13.40;72.62;100404.56;5045569;28;20052;-67
2022/11/09 03:32:05;;;;;;;3.33;1.83;;;;;;;13.29;73.69;100396.56;5048610;28;20045;-67
2022/11/09 03:34:32;;;;;;;6.03;2.30;;;;;;;13.05;74.87;100414.81;5046281;28;20413;-67
2022/11/09 03:36:58;;;;;;;5.80;2.58;;;;;;;13.16;74.50;100407.06;5047402;28;20053;-67
2022/11/09 03:39:25;;;;;;;4.97;2.05;;;;;;;13.04;75.12;100404.38;5047534;28;20045;-67
2022/11/09 03:41:51;;;;;;;7.63;2.38;;;;;;;13.25;74.56;100416.13;5046757;28;20103;-67
2022/11/09 03:44:18;;;;;;;6.57;2.10;;;;;;;13.20;74.82;100417.38;5046068;28;20040;-67
2022/11/09 03:46:46;;;;;;;4.90;2.05;;;;;;;13.54;73.73;100409.72;5047973;28;20044;-67
2022/11/09 03:49:13;;;;;;;7.05;2.28;;;;;;;13.38;74.43;100416.13;5045456;28;20052;-67
2022/11/09 03:51:39;;;;;;;6.88;2.20;;;;;;;13.34;74.84;100407.59;5047037;28;20497;-67
2022/11/09 03:54:06;;;;;;;9.65;2.03;;;;;;;13.83;73.05;100402.41;5047177;28;20049;-67
2022/11/09 03:56:32;;;;;;;5.55;2.33;;;;;;;13.92;72.69;100401.78;5045623;28;20043;-67
2022/11/09 03:58:59;;;;;;;5.28;2.10;;;;;;;13.52;74.00;100394.97;5046001;28;20056;-67
2022/11/09 04:01:25;;;;;;;6.05;2.30;;;;;;;13.67;73.81;100390.44;5048001;28;20060;-67
2022/11/09 04:03:53;;;;;;;4.65;2.15;;;;;;;13.72;73.26;100389.16;5045024;28;20041;-67
2022/11/09 04:06:19;;;;;;;4.75;2.20;;;;;;;13.65;73.60;100378.19;5047161;28;20531;-67
2022/11/09 04:08:46;;;;;;;8.88;2.40;;;;;;;13.53;73.82;100389.59;5034865;28;20050;-67
2022/11/09 04:11:12;;;;;;;4.40;2.35;;;;;;;13.84;73.36;100396.19;5026314;28;20415;-68
2022/11/09 04:13:39;;;;;;;5.57;2.33;;;;;;;13.90;73.00;100387.00;5044062;28;20048;-67
2022/11/09 04:16:05;;;;;;;3.25;1.90;;;;;;;13.78;72.95;100388.72;5044578;28;20049;-67
2022/11/09 04:18:32;;;;;;;4.40;2.13;;;;;;;13.79;73.18;100389.53;5044878;28;20049;-68
2022/11/09 04:21:00;;;;;;;7.38;2.35;;;;;;;14.17;72.28;100378.91;5046490;28;20056;-68
2022/11/09 04:23:26;;;;;;;6.80;2.08;;;;;;;14.39;71.16;100379.06;5044912;28;20416;-68
2022/11/09 04:25:53;;;;;;;4.88;2.13;;;;;;;14.49;70.85;100380.94;5045150;28;20080;-68
2022/11/09 04:28:19;;;;;;;5.72;2.00;;;;;;;14.70;70.03;100382.94;5046620;28;20045;-68
2022/11/09 04:30:46;;;;;;;3.08;1.70;;;;;;;14.28;71.45;100387.75;5045869;28;20052;-68
2022/11/09 04:33:12;;;;;;;5.32;1.92;;;;;;;14.56;70.90;100390.06;5045255;28;20045;-68
2022/11/09 04:35:39;;;;;;;4.82;1.90;;;;;;;14.21;72.30;100391.78;5046357;28;20420;-68
2022/11/09 04:38:10;;;;;;;3.40;2.00;;;;;;;14.18;72.26;100397.28;5045610;28;20555;-68
2022/11/09 04:40:36;;;;;;;3.80;2.15;;;;;;;14.30;72.50;100395.56;5044128;28;20041;-68
2022/11/09 04:43:04;;;;;;;5.15;2.30;;;;;;;14.38;72.40;100388.78;5046530;28;20048;-68
2022/11/09 04:45:32;;;;;;;5.85;2.50;;;;;;;13.83;74.61;100397.13;5046813;28;20056;-68
2022/11/09 04:47:59;;;;;;;4.20;2.13;;;;;;;14.24;74.53;100401.25;5045399;28;20060;-67
2022/11/09 04:50:26;;;;;;;4.65;2.25;;;;;;;14.20;75.35;100402.44;5045237;28;20045;-67
2022/11/09 04:52:52;;;;;;;3.50;2.00;;;;;;;14.17;76.99;100406.13;5045533;28;20053;-67
2022/11/09 04:55:21;;;;;;;5.00;2.30;;;;;;;14.04;77.46;100408.78;5045101;28;20051;-66
2022/11/09 04:57:47;;;;;;;4.93;2.28;;;;;;;14.41;77.55;100403.56;5045154;28;20041;-66
2022/11/09 05:00:14;;;;;;;5.00;2.30;;;;;;;14.57;77.28;100409.38;5046021;28;20049;-66
2022/11/09 05:02:40;;;;;;;5.82;2.05;;;;;;;14.63;77.57;100400.19;5044640;28;20048;-67
2022/11/09 05:05:07;;;;;;;4.70;2.20;;;;;;;14.65;77.89;100398.28;5045650;28;20045;-67
2022/11/09 05:07:34;;;;;;;6.90;2.28;;;;;;;14.85;77.73;100395.00;5045892;28;20106;-67
2022/11/09 05:10:00;;;;;;;6.82;2.63;;;;;;;15.22;76.31;100401.84;5043199;28;20056;-68
2022/11/09 05:12:28;;;;;;;5.57;2.55;;;;;;;15.22;76.95;100401.84;5044005;28;20049;-67
2022/11/09 05:14:54;;;;;;;5.40;2.15;;;;;;;15.01;77.63;100395.53;5045793;28;20060;-67
2022/11/09 05:17:21;;;;;;;5.43;2.80;;;;;;;14.63;80.52;100392.28;5044056;28;20041;-67
2022/11/09 05:19:47;;;;;;;5.03;2.78;;;;;;;14.90;79.22;100395.47;5046609;28;20128;-67
2022/11/09 05:24:58;;;;;;;5.03;2.88;;;;;;;14.91;79.73;100405.94;5045739;28;20052;-67
2022/11/09 05:27:24;;;;;;;6.50;3.05;;;;;;;14.69;80.34;100399.72;5044957;28;20435;-67
2022/11/09 05:29:52;;;;;;;6.40;2.80;;;;;;;14.77;80.77;100402.66;5045704;28;20531;-68
2022/11/09 05:32:19;;;;;;;5.25;3.08;;;;;;;14.97;80.27;100404.63;5016663;28;20467;-68
2022/11/09 05:34:45;;;;;;;5.40;2.95;;;;;;;15.44;78.50;100412.44;5025918;28;20071;-68
2022/11/09 05:37:12;;;;;;;4.75;2.30;;;;;;;14.90;79.99;100411.31;5025413;28;20048;-68
2022/11/09 05:39:38;;;;;;;4.00;2.42;;;;;;;14.60;82.16;100404.72;5025521;28;20518;-68
2022/11/09 05:42:05;;;;;;;9.32;2.65;;;;;;;14.45;84.16;100408.47;5026697;28;20072;-68
2022/11/09 05:44:31;;;;;;;5.78;3.13;;;;;;;14.28;85.43;100410.63;5026746;28;20044;-68
2022/11/09 05:46:59;;;;;;;6.70;2.60;;;;;;;14.23;86.43;100402.22;5018046;28;20506;-68
2022/11/09 05:49:25;;;;;;;8.40;2.33;;;;;;;14.25;86.79;100398.53;5028915;28;20519;-68
2022/11/09 05:51:52;;;;;;;4.13;2.60;;;;;;;13.75;90.77;100395.97;5022198;28;20045;-68
2022/11/09 05:54:18;;;;;;;8.85;2.78;;;;;;;13.79;91.08;100379.00;5020395;28;20556;-68
2022/11/09 05:56:45;;;;;;;9.80;2.90;;;;;;;14.03;89.43;100377.28;5030140;28;20501;-68
2022/11/09 05:59:12;;;;;;;4.35;2.88;;;;;;;13.97;90.83;100385.59;5039102;28;20052;-68
2022/11/09 06:01:38;;;;;;;6.05;3.22;;;;;;;14.09;89.47;100392.66;5019521;28;20049;-67
2022/11/09 06:04:06;;;;;;;6.13;3.50;;;;;;;13.99;90.18;100400.38;5048214;28;20048;-66
2022/11/09 06:06:32;;;;;;;5.82;3.03;;;;;;;14.06;89.92;100408.69;5031183;28;20063;-67
2022/11/09 06:08:59;;;;;;;5.85;3.20;;;;;;;13.89;90.09;100401.16;5020631;28;20041;-66
2022/11/09 06:11:27;;;;;;;8.70;3.47;;;;;;;13.81;91.96;100395.56;5030317;28;20045;-65
2022/11/09 06:13:54;;;;;;;8.05;3.28;;;;;;;14.00;90.89;100388.91;5030805;28;20052;-65
2022/11/09 06:16:21;;;;;;;4.45;3.17;;;;;;;13.67;92.57;100387.78;5019557;28;20041;-65
2022/11/09 06:18:47;;;;;;;5.55;3.33;;;;;;;13.63;93.00;100395.06;5029298;28;20048;-65
2022/11/09 06:21:15;;;;;;;4.82;2.65;;;;;;;13.73;92.85;100400.53;5031409;28;20044;-66
2022/11/09 06:23:41;;;;;;;4.82;2.78;;;;;;;13.53;93.62;100389.59;5019642;28;20068;-65
2022/11/09 06:26:10;;;;;;;6.32;3.30;;;;;;;13.59;94.06;100388.34;5029495;28;20079;-65
2022/11/09 06:28:37;;;;;;;5.85;3.08;;;;;;;13.68;93.32;100400.00;5030481;28;20063;-66
2022/11/09 06:31:05;;;;;;;6.57;3.17;;;;;;;13.68;92.75;100402.63;5019967;28;20076;-66
2022/11/09 06:33:33;;;;;;;6.35;2.80;;;;;;;13.39;94.44;100412.56;5028692;28;20041;-66
2022/11/09 06:36:00;;;;;;;5.20;2.90;;;;;;;13.19;95.14;100421.81;5019288;28;20056;-65
2022/11/09 06:38:28;;;;;;;4.53;3.10;;;;;;;13.06;96.17;100421.75;5027729;28;20064;-66
2022/11/09 06:40:56;;;;;;;5.40;3.00;;;;;;;13.08;96.12;100430.38;5027666;28;20049;-65
2022/11/09 06:43:23;;;;;;;4.15;2.83;;;;;;;13.17;95.59;100447.41;5021830;28;20416;-65
2022/11/09 06:45:50;;;;;;;6.85;2.90;;;;;;;13.06;95.62;100426.19;5021605;28;20055;-65
2022/11/09 06:48:17;;;;;;;5.05;3.10;;;;;;;13.33;94.31;100429.63;5028012;28;20109;-65
2022/11/09 06:50:43;;;;;;;6.85;3.10;;;;;;;13.67;92.52;100437.84;5022964;28;20049;-65
2022/11/09 06:53:12;;;;;;;6.80;3.30;;;;;;;13.97;90.39;100435.69;5028257;28;20052;-66
2022/11/09 06:55:40;;;;;;;5.07;3.40;;;;;;;14.23;88.94;100450.50;5025179;28;20497;-66
2022/11/09 06:58:08;;;;;;;5.88;3.38;;;;;;;13.43;93.26;100443.84;5017502;28;20049;-65
2022/11/09 07:00:35;;;;;;;8.80;3.83;;;;;;;13.26;93.96;100449.44;5028113;28;20048;-65
2022/11/09 07:03:02;;;;;;;6.38;3.35;;;;;;;13.49;92.37;100446.06;5036943;28;20616;-65
2022/11/09 07:05:29;;;;;;;6.68;3.20;;;;;;;13.29;93.90;100454.47;5026780;28;20049;-65
2022/11/09 07:07:56;;;;;;;7.25;3.28;;;;;;;13.69;91.45;100459.66;5029188;28;20044;-65
2022/11/09 07:10:23;;;;;;;7.53;3.45;;;;;;;13.57;91.73;100464.81;5027067;28;20044;-65
2022/11/09 07:12:50;;;;;;;5.97;3.25;;;;;;;13.58;91.28;100466.50;5017693;28;20440;-66
2022/11/09 07:15:17;;;;;;;8.43;4.30;;;;;;;13.39;93.06;100473.97;5027867;28;20052;-66
2022/11/09 07:17:44;;;;;;;5.28;3.70;;;;;;;13.49;92.73;100467.13;5026944;28;20045;-66
2022/11/09 07:20:13;;;;;;;7.90;3.60;;;;;;;13.33;92.72;100455.97;5017887;28;20053;-66
2022/11/09 07:22:40;;;;;;;7.60;3.80;;;;;;;13.61;92.07;100463.66;5028806;28;20098;-66
2022/11/09 07:25:09;;;;;;;5.20;3.83;;;;;;;13.87;89.79;100463.66;5007567;28;20570;-66
2022/11/09 07:27:36;;;;;;;9.30;4.88;;;;;;;13.45;91.44;100459.56;4998005;28;20441;-66
2022/11/09 07:30:04;;;;;;;6.43;3.88;;;;;;;12.99;94.04;100461.75;5027419;28;20049;-66
2022/11/09 07:32:33;;;;;;;4.20;3.00;;;;;;;13.12;94.45;100467.91;5026881;28;20072;-67
2022/11/09 07:35:00;;;;;;;6.50;4.22;;;;;;;12.99;93.63;100457.31;5017593;28;20140;-66
2022/11/09 07:37:26;;;;;;;7.60;3.63;;;;;;;12.69;95.42;100460.19;5026718;28;20045;-66
2022/11/09 07:39:52;;;;;;;4.97;3.17;;;;;;;13.08;93.86;100446.19;4992378;28;1024011;-66
2022/11/09 07:42:19;;;;;;;6.40;2.90;;;;;;;13.21;93.00;100462.03;5018827;28;20048;-66
2022/11/09 07:44:45;;;;;;;8.27;4.47;;;;;;;13.28;92.84;100468.59;5029629;28;20044;-67
2022/11/09 07:47:13;;;;;;;6.20;2.95;;;;;;;13.29;92.39;100456.25;5028213;28;20063;-67
2022/11/09 07:49:39;;;;;;;5.32;2.85;;;;;;;13.34;91.76;100456.81;5017136;28;20049;-67
2022/11/09 07:52:06;;;;;;;4.95;2.67;;;;;;;13.57;90.79;100467.44;5028727;28;20045;-67
2022/11/09 07:54:32;;;;;;;4.80;2.75;;;;;;;13.80;88.95;100465.03;5028387;28;20067;-67
2022/11/09 07:56:59;;;;;;;4.20;3.05;;;;;;;13.70;89.90;100472.75;5018413;28;20084;-67
2022/11/09 07:59:25;;;;;;;4.90;2.92;;;;;;;14.04;87.57;100479.16;5027710;28;20562;-67
2022/11/09 08:01:52;;;;;;;7.22;3.08;;;;;;;13.98;88.17;100474.28;5028059;28;20049;-67
2022/11/09 08:04:20;;;;;;;4.13;2.33;;;;;;;13.73;89.36;100467.25;5036642;28;20060;-67
2022/11/09 08:06:46;;;;;;;3.35;2.65;;;;;;;13.93;88.31;100473.78;5027817;28;20053;-67
2022/11/09 08:09:12;;;;;;;4.93;2.70;;;;;;;14.15;87.75;100484.53;5027226;28;20071;-67
2022/11/09 08:11:39;;;;;;;4.53;2.35;;;;;;;13.92;88.04;100480.84;5017862;28;20055;-67
2022/11/09 08:14:05;;;;;;;3.90;2.30;;;;;;;13.98;87.84;100475.13;5028085;28;20045;-67
2022/11/09 08:16:32;;;;;;;6.47;2.70;;;;;;;14.34;86.00;100490.19;5027499;28;20044;-67
2022/11/09 08:18:58;;;;;;;4.85;2.42;;;;;;;14.55;84.85;100493.09;5026878;28;20045;-67
2022/11/09 08:21:26;;;;;;;4.20;2.38;;;;;;;14.22;86.42;100498.09;5039114;28;20461;-67
2022/11/09 08:23:52;;;;;;;4.60;2.72;;;;;;;14.23;87.17;100502.44;5024382;28;20041;-67
2022/11/09 08:26:19;;;;;;;10.65;2.85;;;;;;;14.30;86.43;100499.22;5017201;28;20095;-67
2022/11/09 08:28:45;;;;;;;4.53;2.63;;;;;;;14.37;85.82;100502.34;5027616;28;20508;-67
2022/11/09 08:31:12;;;;;;;6.95;2.83;;;;;;;14.30;86.33;100511.59;5026990;28;20049;-67
2022/11/09 08:33:39;;;;;;;5.47;2.90;;;;;;;14.40;86.24;100516.16;5020420;28;20052;-67
2022/11/09 08:36:11;;;;;;;8.48;2.72;;;;;;;14.18;86.46;100517.72;5028305;28;20413;-67
2022/11/09 08:38:39;;;;;;;5.63;2.63;;;;;;;14.20;87.38;100527.22;5045197;28;20037;-67
2022/11/09 08:41:06;;;;;;;5.15;2.75;;;;;;;14.15;87.26;100527.53;5026019;28;20052;-67
2022/11/09 08:43:32;;;;;;;4.25;2.28;;;;;;;14.11;87.42;100530.50;5027450;28;20591;-67
2022/11/09 08:45:59;;;;;;;4.68;2.70;;;;;;;14.23;87.54;100534.91;5035203;28;20049;-67
2022/11/09 08:48:26;;;;;;;5.18;3.30;;;;;;;14.24;87.22;100517.28;5017661;28;20049;-68
2022/11/09 08:50:53;;;;;;;5.57;2.80;;;;;;;14.44;86.58;100532.59;5045127;28;20049;-67
2022/11/09 08:53:19;;;;;;;4.72;2.67;;;;;;;14.04;87.83;100537.16;5026421;28;20525;-67
2022/11/09 08:55:47;;;;;;;4.40;2.85;;;;;;;14.24;88.03;100541.88;5025101;28;20507;-67
2022/11/09 08:58:14;;;;;;;6.00;3.03;;;;;;;14.70;86.57;100536.88;5037982;28;20560;-67
2022/11/09 09:00:40;;;;;;;7.18;3.03;;;;;;;14.72;85.01;100531.44;5040676;28;20062;-67
2022/11/09 09:03:07;;;;;;;5.63;3.00;;;;;;;15.08;83.60;100534.06;5053559;28;20060;-67
2022/11/09 09:05:35;;;;;;;5.68;2.60;;;;;;;15.25;81.21;100522.25;5030200;28;20432;-67
2022/11/09 09:08:02;;;;;;;8.38;2.92;;;;;;;15.77;80.17;100522.69;5037972;28;20504;-67
2022/11/09 09:10:29;;;;;;;5.22;2.53;;;;;;;15.87;78.80;100522.81;5045208;28;20158;-68
2022/11/09 09:12:56;;;;;;;4.15;2.42;;;;;;;16.33;77.12;100528.84;5044526;28;20049;-68
2022/11/09 09:15:23;;;;;;;7.22;2.70;;;;;;;15.88;79.34;100535.09;5034981;28;20041;-68
2022/11/09 09:17:49;;;;;;;4.20;2.30;;;;;;;15.43;81.30;100529.66;5034802;28;20055;-68
2022/11/09 09:20:17;;;;;;;4.25;2.55;;;;;;;15.47;80.81;100527.63;5035887;28;20052;-68
2022/11/09 09:22:43;;;;;;;6.30;2.88;;;;;;;15.35;81.03;100524.09;5045681;28;20084;-68
2022/11/09 09:25:10;;;;;;;4.22;2.80;;;;;;;15.20;82.28;100533.16;5031839;28;20071;-68
2022/11/09 09:27:37;;;;;;;4.53;2.85;;;;;;;15.25;83.13;100527.53;5055053;28;20053;-67
2022/11/09 09:30:06;;;;;;;6.55;3.10;;;;;;;15.61;81.63;100529.25;5024473;28;20048;-68
2022/11/09 09:32:32;;;;;;;8.68;3.50;;;;;;;15.21;82.73;100529.56;5041131;28;20045;-68
2022/11/09 09:34:59;;;;;;;5.45;2.85;;;;;;;14.90;83.97;100532.75;5045238;28;20519;-68
2022/11/09 09:37:25;;;;;;;5.13;2.88;;;;;;;14.83;84.67;100531.53;5047174;28;20773;-67
2022/11/09 09:39:51;;;;;;;4.85;2.60;;;;;;;14.54;85.86;100536.25;5022667;28;20087;-67
2022/11/09 09:42:22;;;;;;;5.60;2.75;;;;;;;14.71;85.42;100537.72;5038535;28;20075;-67
2022/11/09 09:44:56;;;;;;;6.57;2.60;;;;;;;14.52;85.64;100525.81;5046854;28;20060;-67
2022/11/09 09:47:33;;;;;;;6.20;2.50;;;;;;;14.73;84.66;100533.16;5023579;28;20052;-67
2022/11/09 09:50:03;;;;;;;4.10;2.22;;;;;;;14.68;84.77;100536.09;5031590;28;20486;-67
2022/11/09 09:52:38;;;;;;;4.00;2.30;;;;;;;14.66;85.20;100534.53;5041111;28;20522;-67
2022/11/09 09:55:09;;;;;;;6.35;2.15;;;;;;;14.99;84.32;100511.81;5041861;28;20059;-67
2022/11/09 09:57:36;;;;;;;3.00;2.00;;;;;;;14.99;83.26;100503.06;5054937;28;20064;-67
2022/11/09 10:00:07;;;;;;;3.63;2.10;;;;;;;14.51;85.53;100521.50;5036445;28;20056;-67
2022/11/09 10:02:36;;;;;;;5.03;2.03;;;;;;;14.73;84.61;100512.03;5034634;28;20519;-67
2022/11/09 10:05:08;;;;;;;3.55;2.00;;;;;;;14.85;83.56;100509.34;5043188;28;20053;-67
2022/11/09 10:07:41;;;;;;;4.15;1.80;;;;;;;15.03;82.79;100507.16;5035704;28;20060;-68
2022/11/09 10:10:31;;;;;;;2.92;1.90;;;;;;;15.14;82.76;100514.28;5045865;28;20523;-68
2022/11/09 10:13:17;;;;;;;3.72;1.98;;;;;;;15.31;82.20;100504.16;5042860;28;20056;-68
2022/11/09 10:15:49;;;;;;;3.55;1.85;;;;;;;15.39;81.92;100508.84;5025645;28;20041;-68
2022/11/09 10:18:37;;;;;;;3.15;1.90;;;;;;;15.28;81.78;100512.31;5057695;28;20053;-68
2022/11/09 10:21:20;;;;;;;3.92;2.15;;;;;;;15.73;80.74;100515.09;5039282;28;20809;-68
2022/11/09 10:24:03;;;;;;;4.53;2.65;;;;;;;15.32;81.89;100512.91;5024987;28;20045;-68
2022/11/09 10:26:38;;;;;;;6.07;2.38;;;;;;;15.85;80.10;100530.84;5037321;28;20051;-68
2022/11/09 10:29:19;;;;;;;5.50;2.15;;;;;;;15.68;81.13;100525.19;5043667;28;20048;-68
2022/11/09 10:31:47;;;;;;;3.70;1.83;;;;;;;15.70;80.08;100528.56;5044637;28;20044;-68
2022/11/09 10:34:19;;;;;;;3.80;1.70;;;;;;;15.52;80.41;100522.88;5045465;28;20493;-68
2022/11/09 10:36:53;;;;;;;3.30;1.98;;;;;;;15.81;79.13;100518.00;5038379;28;20048;-68
2022/11/09 10:39:24;;;;;;;6.80;2.30;;;;;;;15.43;79.65;100520.88;5040072;28;20041;-67
2022/11/09 10:41:51;;;;;;;6.97;1.95;;;;;;;15.27;81.85;100526.47;5028787;28;20458;-67
2022/11/09 10:44:19;;;;;;;4.55;1.80;;;;;;;15.19;82.03;100520.91;5047364;28;20405;-67
2022/11/09 10:47:02;;;;;;;3.75;1.80;;;;;;;14.93;82.90;100514.91;5046978;28;20409;-67
2022/11/09 10:49:30;;;;;;;2.90;1.90;;;;;;;15.15;82.40;100508.88;5030581;28;20053;-67
2022/11/09 10:51:57;;;;;;;3.20;1.83;;;;;;;15.46;81.80;100500.34;5045417;28;20095;-67
2022/11/09 10:54:25;;;;;;;3.20;1.73;;;;;;;15.21;81.20;100495.22;5046295;28;20037;-67
2022/11/09 10:57:00;;;;;;;3.67;2.28;;;;;;;14.90;81.54;100495.81;5041016;28;20044;-67
2022/11/09 10:59:36;;;;;;;3.63;1.75;;;;;;;14.81;82.42;100499.13;5053569;28;20045;-67
2022/11/09 11:02:22;;;;;;;3.72;1.80;;;;;;;14.98;82.61;100496.94;5039158;28;20050;-67
2022/11/09 11:04:52;;;;;;;6.15;2.30;;;;;;;14.84;83.33;100494.47;5057427;28;20520;-67
2022/11/09 11:07:20;;;;;;;7.32;1.92;;;;;;;14.58;84.03;100491.09;5034245;28;20700;-67
2022/11/09 11:09:47;;;;;;;4.47;1.58;;;;;;;14.64;84.29;100487.16;5054741;28;20436;-67
2022/11/09 11:12:15;;;;;;;2.33;1.70;;;;;;;14.75;83.11;100491.63;5045979;28;20069;-67
2022/11/09 11:14:43;;;;;;;4.32;1.70;;;;;;;14.71;83.69;100485.75;5038154;28;20088;-67
2022/11/09 11:17:21;;;;;;;4.05;2.10;;;;;;;14.86;82.88;100489.06;5030317;28;20053;-67
2022/11/09 11:19:48;;;;;;;3.75;2.00;;;;;;;15.10;81.70;100489.91;5025285;28;20042;-67
2022/11/09 11:22:21;;;;;;;5.20;2.08;;;;;;;15.00;81.19;100486.28;5047950;28;20052;-67
2022/11/09 11:24:55;;;;;;;5.88;2.15;;;;;;;15.31;80.00;100484.81;5045740;28;20162;-67
2022/11/09 11:27:27;;;;;;;6.97;2.28;;;;;;;15.39;79.34;100483.28;5046951;28;20515;-66
2022/11/09 11:29:59;;;;;;;2.58;1.77;;;;;;;15.59;79.13;100487.09;5045996;28;20043;-66
2022/11/09 11:32:26;;;;;;;3.80;2.00;;;;;;;15.92;77.27;100481.00;5045707;28;20462;-66